Time;durP1;ratioP1;P1;durP2;ratioP2;P2;SDS_P1;SDS_P2;PMS_P1;PMS_P2;Temp;Humidity;BMP_temperature;BMP_pressure;BME280_temperature;BME280_humidity;BME280_pressure;Samples;Min_cycle;Max_cycle;Signal;HPM_P1;HPM_P2
2023/10/14 00:01:06;;;;;;;;;;;;;;;20.01;49.32;101812.22;5017894;28;19956;-89
2023/10/14 00:03:32;;;;;;;;;;;;;;;20.03;49.24;101809.63;5027039;28;20359;-89
2023/10/14 00:06:05;;;;;;;;;;;;;;;20.04;49.21;101807.00;5023139;28;19976;-88
2023/10/14 00:08:35;;;;;;;;;;;;;;;20.11;48.85;101811.66;5000455;28;19917;-89
2023/10/14 00:11:01;;;;;;;;;;;;;;;20.16;48.69;101817.09;5047843;28;20012;-89
2023/10/14 00:13:30;;;;;;;;;;;;;;;20.06;49.02;101802.66;5022328;28;19956;-89
2023/10/14 00:16:01;;;;;;;;;;;;;;;20.04;49.12;101806.09;5008645;28;20365;-90
2023/10/14 00:18:27;;;;;;;;;;;;;;;20.06;49.03;101805.28;5022574;28;19916;-90
2023/10/14 00:20:54;;;;;;;;;;;;;;;20.03;49.05;101799.91;5037847;28;20301;-89
2023/10/14 00:23:26;;;;;;;;;;;;;;;20.02;49.13;101795.44;5036417;28;19921;-89
2023/10/14 00:25:54;;;;;;;;;;;;;;;20.06;48.96;101792.03;5012307;28;20408;-91
2023/10/14 00:28:20;;;;;;;;;;;;;;;20.06;49.03;101793.78;5046372;28;20313;-89
2023/10/14 00:30:46;;;;;;;;;;;;;;;20.06;48.95;101793.78;5029639;28;19912;-88
2023/10/14 00:33:12;;;;;;;;;;;;;;;20.09;48.87;101794.81;5048146;28;19923;-92
2023/10/14 00:35:40;;;;;;;;;;;;;;;20.02;48.98;101791.91;5040016;28;19920;-89
2023/10/14 00:38:10;;;;;;;;;;;;;;;20.01;49.07;101790.13;5034681;28;19968;-89
2023/10/14 00:40:38;;;;;;;;;;;;;;;20.05;48.94;101790.25;5020330;28;19913;-90
2023/10/14 00:43:04;;;;;;;;;;;;;;;20.09;48.80;101791.25;5042184;28;19916;-90
2023/10/14 00:45:30;;;;;;;;;;;;;;;20.03;48.92;101788.41;5017975;28;19928;-88
2023/10/14 00:47:59;;;;;;;;;;;;;;;19.96;49.06;101791.69;5013685;28;19925;-90
2023/10/14 00:50:33;;;;;;;;;;;;;;;20.04;49.01;101776.94;5044322;28;19913;-88
2023/10/14 00:53:05;;;;;;;;;;;;;;;20.09;48.86;101783.31;5002087;28;20280;-89
2023/10/14 00:58:24;;;;;;;;;;;;;;;19.95;49.06;101774.91;5066040;28;19913;-90
2023/10/14 01:01:00;;;;;;;;;;;;;;;20.02;48.77;101773.34;5036886;28;19920;-91
2023/10/14 01:03:32;;;;;;;;;;;;;;;19.95;48.98;101766.94;5015803;28;20382;-87
2023/10/14 01:05:58;;;;;;;;;;;;;;;20.00;48.75;101762.72;5032166;28;20338;-87
2023/10/14 01:08:25;;;;;;;;;;;;;;;20.07;48.59;101759.38;5040062;28;19960;-89
2023/10/14 01:10:51;;;;;;;;;;;;;;;20.06;48.73;101765.53;5035996;28;19999;-90
2023/10/14 01:13:21;;;;;;;;;;;;;;;19.94;48.97;101757.22;5018528;28;20305;-91
2023/10/14 01:15:49;;;;;;;;;;;;;;;20.00;48.89;101761.78;5036105;28;20003;-90
2023/10/14 01:18:14;;;;;;;;;;;;;;;20.06;48.58;101751.38;5024939;28;19924;-90
2023/10/14 01:20:43;;;;;;;;;;;;;;;19.96;48.99;101752.84;5015886;28;19913;-91
2023/10/14 01:23:14;;;;;;;;;;;;;;;20.01;48.58;101748.59;5016313;28;19913;-90
2023/10/14 01:25:47;;;;;;;;;;;;;;;19.90;49.02;101750.00;5052259;28;20337;-91
2023/10/14 01:28:22;;;;;;;;;;;;;;;19.92;49.05;101743.91;5006378;28;19912;-90
2023/10/14 01:34:04;;;;;;;;;;;;;;;19.89;49.00;101748.19;5025703;28;19913;-89
2023/10/14 01:36:34;;;;;;;;;;;;;;;19.88;49.16;101744.66;5036067;28;19916;-90
2023/10/14 01:39:09;;;;;;;;;;;;;;;19.81;49.22;101739.09;5035269;28;19916;-88
2023/10/14 01:41:37;;;;;;;;;;;;;;;19.96;48.78;101742.25;5026929;28;19960;-90
2023/10/14 01:44:06;;;;;;;;;;;;;;;19.91;48.97;101733.22;5047812;28;19931;-89
2023/10/14 01:46:34;;;;;;;;;;;;;;;19.80;49.19;101732.91;5033287;28;19917;-90
2023/10/14 01:49:10;;;;;;;;;;;;;;;19.92;48.88;101728.00;5014783;28;20015;-90
2023/10/14 01:51:38;;;;;;;;;;;;;;;19.90;48.87;101724.38;5041299;28;19967;-89
2023/10/14 01:54:04;;;;;;;;;;;;;;;19.89;48.87;101725.22;5033090;28;19917;-89
2023/10/14 01:56:30;;;;;;;;;;;;;;;20.01;48.51;101716.75;5030336;28;19917;-88
2023/10/14 01:58:58;;;;;;;;;;;;;;;19.96;48.65;101725.41;5061178;28;19921;-88
2023/10/14 02:01:28;;;;;;;;;;;;;;;20.05;48.42;101720.41;5032566;28;19916;-88
2023/10/14 02:03:54;;;;;;;;;;;;;;;19.97;48.57;101720.16;5035451;28;19917;-89
2023/10/14 02:06:21;;;;;;;;;;;;;;;19.89;48.81;101719.03;5043787;28;19996;-89
2023/10/14 02:08:53;;;;;;;;;;;;;;;19.93;48.67;101723.56;5050847;28;19941;-87
2023/10/14 02:11:35;;;;;;;;;;;;;;;19.95;48.61;101723.63;5044211;28;19916;-88
2023/10/14 02:14:06;;;;;;;;;;;;;;;19.95;48.67;101728.94;5027006;28;19983;-89
2023/10/14 02:16:41;;;;;;;;;;;;;;;19.98;48.55;101727.28;5014936;28;19912;-88
2023/10/14 02:21:59;;;;;;;;;;;;;;;20.01;48.48;101731.78;5055876;28;19917;-90
2023/10/14 02:24:27;;;;;;;;;;;;;;;19.99;48.49;101731.72;5028040;28;19920;-91
2023/10/14 02:26:54;;;;;;;;;;;;;;;19.97;48.66;101730.78;5030247;28;19913;-91
2023/10/14 02:29:23;;;;;;;;;;;;;;;20.01;48.49;101730.03;5015840;28;19940;-89
2023/10/14 02:31:51;;;;;;;;;;;;;;;19.85;48.75;101738.34;5066392;28;19916;-88
2023/10/14 02:34:18;;;;;;;;;;;;;;;19.97;48.41;101727.22;5034727;28;19946;-88
2023/10/14 02:36:49;;;;;;;;;;;;;;;19.87;48.77;101729.56;5023763;28;19920;-88
2023/10/14 02:39:17;;;;;;;;;;;;;;;19.95;48.56;101728.94;5035639;28;19978;-88
2023/10/14 02:41:59;;;;;;;;;;;;;;;19.97;48.43;101722.81;5028465;28;19917;-88
2023/10/14 02:44:43;;;;;;;;;;;;;;;19.96;48.37;101725.41;5042489;28;19921;-88
2023/10/14 02:47:09;;;;;;;;;;;;;;;19.98;48.30;101726.38;5035430;28;20644;-88
2023/10/14 02:49:42;;;;;;;;;;;;;;;19.90;48.58;101724.38;5024183;28;19960;-90
2023/10/14 02:52:12;;;;;;;;;;;;;;;19.91;48.50;101722.63;5031686;28;19913;-88
2023/10/14 02:54:42;;;;;;;;;;;;;;;19.95;48.55;101715.69;5017492;28;19944;-89
2023/10/14 02:57:24;;;;;;;;;;;;;;;19.92;48.35;101720.03;5014470;28;20285;-89
2023/10/14 02:59:52;;;;;;;;;;;;;;;19.95;48.22;101711.28;5045468;28;19971;-88
2023/10/14 03:02:27;;;;;;;;;;;;;;;19.97;48.29;101716.63;5032835;28;19913;-89
2023/10/14 03:07:28;;;;;;;;;;;;;;;19.86;48.61;101717.19;5038936;28;19917;-88
2023/10/14 03:10:39;;;;;;;;;;;;;;;19.97;48.29;101717.53;5034752;28;19963;-89
2023/10/14 03:12:51;;;;;;;;;;;;;;;19.93;48.43;101724.47;5031683;28;20000;-89
2023/10/14 03:15:20;;;;;;;;;;;;;;;19.93;48.36;101721.81;5013372;28;20017;-88
2023/10/14 03:17:56;;;;;;;;;;;;;;;19.94;48.22;101720.09;5030529;28;20325;-88
2023/10/14 03:22:57;;;;;;;;;;;;;;;19.83;48.56;101717.13;5036843;28;19916;-88
2023/10/14 03:25:29;;;;;;;;;;;;;;;19.86;48.41;101719.84;5023228;28;19920;-88
2023/10/14 03:28:11;;;;;;;;;;;;;;;19.92;48.37;101725.34;5032779;28;19963;-89
2023/10/14 03:30:37;;;;;;;;;;;;;;;19.73;49.27;101729.16;5016498;28;19913;-88
2023/10/14 03:33:09;;;;;;;;;;;;;;;19.71;49.37;101729.97;5032918;28;19975;-88
2023/10/14 03:35:35;;;;;;;;;;;;;;;19.64;50.29;101726.19;5016477;28;19913;-89
2023/10/14 03:38:07;;;;;;;;;;;;;;;19.64;50.38;101730.56;5037933;28;19946;-88
2023/10/14 03:43:15;;;;;;;;;;;;;;;19.53;51.19;101722.28;5034656;28;19927;-88
2023/10/14 03:45:56;;;;;;;;;;;;;;;19.50;51.06;101724.84;5015075;28;19920;-89
2023/10/14 03:48:28;;;;;;;;;;;;;;;19.45;51.35;101721.13;5021380;28;19928;-89
2023/10/14 03:51:02;;;;;;;;;;;;;;;19.53;51.35;101716.97;5033695;28;20018;-90
2023/10/14 03:53:34;;;;;;;;;;;;;;;19.44;51.61;101720.22;5053306;28;19912;-88
2023/10/14 03:56:03;;;;;;;;;;;;;;;19.44;51.68;101716.69;5039255;28;19927;-88
2023/10/14 03:58:33;;;;;;;;;;;;;;;19.51;51.41;101714.31;5034061;28;19936;-90
2023/10/14 04:01:02;;;;;;;;;;;;;;;19.49;51.56;101715.06;5032449;28;19913;-90
2023/10/14 04:03:42;;;;;;;;;;;;;;;19.41;51.78;101717.50;5015794;28;19996;-89
2023/10/14 04:06:08;;;;;;;;;;;;;;;19.39;51.95;101716.53;5013641;28;19928;-88
2023/10/14 04:08:40;;;;;;;;;;;;;;;19.43;52.11;101720.16;5023875;28;19916;-88
2023/10/14 04:11:15;;;;;;;;;;;;;;;19.43;52.05;101718.44;5016704;28;19917;-88
2023/10/14 04:19:23;;;;;;;;;;;;;;;19.39;52.08;101710.31;5035453;28;19921;-88
2023/10/14 04:22:07;;;;;;;;;;;;;;;19.41;52.16;101714.84;5039169;28;20408;-88
2023/10/14 04:32:40;;;;;;;;;;;;;;;19.38;52.25;101725.31;5046200;28;19924;-89
2023/10/14 04:35:05;;;;;;;;;;;;;;;19.38;52.19;101730.63;5031271;28;19967;-88
2023/10/14 04:37:50;;;;;;;;;;;;;;;19.37;52.18;101733.22;5021811;28;19920;-88
2023/10/14 04:40:35;;;;;;;;;;;;;;;19.33;52.27;101729.56;5028548;28;20281;-87
2023/10/14 04:43:49;;;;;;;;;;;;;;;19.36;52.29;101724.38;5034938;28;19982;-89
2023/10/14 04:48:37;;;;;;;;;;;;;;;19.35;52.42;101734.94;5045343;28;19925;-89
2023/10/14 04:51:06;;;;;;;;;;;;;;;19.32;52.53;101731.34;5052942;28;19931;-88
2023/10/14 04:53:32;;;;;;;;;;;;;;;19.30;52.48;101729.47;5037200;28;19917;-88
2023/10/14 04:56:01;;;;;;;;;;;;;;;19.29;52.40;101733.88;5031331;28;19916;-88
2023/10/14 04:58:26;;;;;;;;;;;;;;;19.27;52.65;101734.66;5009638;28;19956;-90
2023/10/14 05:01:00;;;;;;;;;;;;;;;19.26;52.63;101732.84;5029467;28;19964;-89
2023/10/14 05:03:27;;;;;;;;;;;;;;;19.27;52.61;101738.19;5022161;28;19948;-90
2023/10/14 05:05:55;;;;;;;;;;;;;;;19.24;52.67;101739.84;5017502;28;19928;-88
2023/10/14 05:08:21;;;;;;;;;;;;;;;19.31;52.33;101742.75;5034394;28;19979;-93
2023/10/14 05:10:50;;;;;;;;;;;;;;;19.15;52.84;101740.44;5016605;28;20421;-88
2023/10/14 05:13:15;;;;;;;;;;;;;;;19.13;52.99;101739.47;5051274;28;19917;-88
2023/10/14 05:15:42;;;;;;;;;;;;;;;19.20;52.81;101744.16;5015895;28;19916;-85
2023/10/14 05:18:14;;;;;;;;;;;;;;;19.12;52.86;101740.34;5030184;28;20015;-86
2023/10/14 05:23:19;;;;;;;;;;;;;;;19.12;53.05;101756.22;5051184;28;19916;-87
2023/10/14 05:25:48;;;;;;;;;;;;;;;19.10;53.19;101752.63;5044297;28;19925;-86
2023/10/14 05:28:15;;;;;;;;;;;;;;;19.13;53.00;101760.66;5032084;28;20099;-86
2023/10/14 05:30:41;;;;;;;;;;;;;;;19.13;53.00;101758.00;5036888;28;19966;-85
2023/10/14 05:33:07;;;;;;;;;;;;;;;19.15;52.92;101752.78;5048602;28;20419;-84
2023/10/14 05:35:42;;;;;;;;;;;;;;;19.15;53.05;101760.72;5048601;28;19917;-85
2023/10/14 05:38:10;;;;;;;;;;;;;;;19.12;53.04;101754.47;5032877;28;20394;-87
2023/10/14 05:40:37;;;;;;;;;;;;;;;19.13;52.96;101758.00;5048742;28;20040;-86
2023/10/14 05:43:02;;;;;;;;;;;;;;;19.14;52.95;101764.22;5030366;28;20389;-85
2023/10/14 05:45:34;;;;;;;;;;;;;;;19.09;53.06;101762.31;5041234;28;19928;-84
2023/10/14 05:47:59;;;;;;;;;;;;;;;19.14;52.96;101759.81;5026717;28;19975;-85
2023/10/14 05:50:25;;;;;;;;;;;;;;;19.07;53.11;101761.38;5013162;28;20003;-85
2023/10/14 05:52:50;;;;;;;;;;;;;;;19.07;53.26;101763.09;5028511;28;20077;-85
2023/10/14 05:55:21;;;;;;;;;;;;;;;19.10;53.11;101763.22;5034557;28;20004;-84
2023/10/14 05:57:47;;;;;;;;;;;;;;;19.07;53.19;101761.38;5027777;28;19917;-85
2023/10/14 06:00:23;;;;;;;;;;;;;;;19.05;53.38;101765.72;5016240;28;20444;-84
2023/10/14 06:02:49;;;;;;;;;;;;;;;19.06;53.32;101756.91;5008259;28;19921;-86
2023/10/14 06:05:16;;;;;;;;;;;;;;;19.06;53.29;101761.31;5027153;28;19925;-85
2023/10/14 06:07:46;;;;;;;;;;;;;;;19.04;53.44;101763.00;4997186;28;20409;-85
2023/10/14 06:10:12;;;;;;;;;;;;;;;19.05;53.28;101762.13;5031573;28;20509;-85
2023/10/14 06:12:37;;;;;;;;;;;;;;;19.00;53.46;101761.09;5011137;28;20110;-88
2023/10/14 06:15:09;;;;;;;;;;;;;;;19.04;53.43;101765.63;5026855;28;20000;-88
2023/10/14 06:17:38;;;;;;;;;;;;;;;19.04;53.35;101760.34;5018538;28;19932;-90
2023/10/14 06:20:20;;;;;;;;;;;;;;;19.04;53.52;101761.25;5015993;28;19917;-92
2023/10/14 06:22:48;;;;;;;;;;;;;;;19.04;53.46;101771.81;5029727;28;19923;-89
2023/10/14 06:25:20;;;;;;;;;;;;;;;19.00;53.50;101764.63;5000276;28;19921;-92
2023/10/14 06:27:47;;;;;;;;;;;;;;;19.05;53.47;101768.34;5005660;28;19968;-92
2023/10/14 06:30:19;;;;;;;;;;;;;;;19.01;53.44;101763.78;5000343;28;19968;-92
2023/10/14 06:33:05;;;;;;;;;;;;;;;19.02;53.64;101762.94;5022236;28;19932;-92
2023/10/14 06:35:43;;;;;;;;;;;;;;;19.01;53.67;101758.50;5010524;28;19968;-88
2023/10/14 06:38:26;;;;;;;;;;;;;;;19.01;53.65;101757.59;5009670;28;20373;-93
2023/10/14 06:41:01;;;;;;;;;;;;;;;19.03;53.80;101762.09;5009461;28;19917;-92
2023/10/14 06:43:28;;;;;;;;;;;;;;;19.03;53.67;101755.91;4998198;28;19917;-92
2023/10/14 06:45:54;;;;;;;;;;;;;;;19.02;53.78;101755.00;5011132;28;20007;-89
2023/10/14 06:48:20;;;;;;;;;;;;;;;19.04;53.66;101750.66;4993948;28;20016;-88
2023/10/14 06:50:48;;;;;;;;;;;;;;;19.01;53.74;101749.66;5010481;28;19924;-90
2023/10/14 06:53:19;;;;;;;;;;;;;;;18.99;53.73;101752.25;4999730;28;20432;-91
2023/10/14 06:55:45;;;;;;;;;;;;;;;18.99;53.93;101746.94;5032988;28;19917;-88
2023/10/14 06:58:18;;;;;;;;;;;;;;;18.98;54.09;101749.53;4997294;28;20020;-89
2023/10/14 07:00:52;;;;;;;;;;;;;;;18.99;53.93;101752.25;5014008;28;19948;-93
2023/10/14 07:03:34;;;;;;;;;;;;;;;18.98;54.05;101745.13;4998284;28;19917;-92
2023/10/14 07:06:04;;;;;;;;;;;;;;;18.95;54.01;101755.63;4999797;28;19925;-93
2023/10/14 07:08:53;;;;;;;;;;;;;;;18.99;53.93;101751.34;5034423;28;19977;-92
2023/10/14 07:11:21;;;;;;;;;;;;;;;18.91;54.23;101751.06;5011583;28;19917;-92
2023/10/14 07:13:59;;;;;;;;;;;;;;;18.91;54.36;101749.31;5012000;28;19923;-94
2023/10/14 07:16:24;;;;;;;;;;;;;;;18.99;54.15;101746.94;5003144;28;19975;-91
2023/10/14 07:19:00;;;;;;;;;;;;;;;18.94;53.85;101748.50;4998234;28;19920;-95
2023/10/14 07:21:29;;;;;;;;;;;;;;;18.96;54.06;101752.13;4995674;28;19925;-92
2023/10/14 07:23:55;;;;;;;;;;;;;;;18.97;54.00;101745.09;4996608;28;20450;-92
2023/10/14 07:26:22;;;;;;;;;;;;;;;18.96;54.42;101741.53;4997536;28;19948;-88
2023/10/14 07:28:59;;;;;;;;;;;;;;;18.91;55.09;101743.13;5031294;28;19917;-93
2023/10/14 07:31:30;;;;;;;;;;;;;;;18.87;55.19;101747.41;5027488;28;19917;-90
2023/10/14 07:34:08;;;;;;;;;;;;;;;18.99;54.90;101746.06;4998996;28;19913;-91
2023/10/14 07:36:39;;;;;;;;;;;;;;;18.92;54.93;101750.22;4999045;28;20338;-91
2023/10/14 07:42:09;;;;;;;;;;;;;;;18.97;54.81;101737.16;4993185;28;20014;-87
2023/10/14 07:44:35;;;;;;;;;;;;;;;19.01;54.64;101736.44;5016920;28;19928;-89
2023/10/14 07:47:05;;;;;;;;;;;;;;;18.97;54.66;101731.88;5011667;28;19921;-90
2023/10/14 07:49:32;;;;;;;;;;;;;;;19.03;54.53;101732.97;5008729;28;19925;-89
2023/10/14 07:52:00;;;;;;;;;;;;;;;19.10;54.53;101731.44;5031381;28;20000;-92
2023/10/14 07:54:29;;;;;;;;;;;;;;;19.12;54.25;101730.63;5005972;28;19940;-93
2023/10/14 07:56:55;;;;;;;;;;;;;;;19.05;54.56;101731.28;5041496;28;19917;-92
2023/10/14 07:59:24;;;;;;;;;;;;;;;19.05;55.00;101733.94;5022871;28;20271;-91
2023/10/14 08:04:57;;;;;;;;;;;;;;;18.97;54.90;101732.75;5049435;28;19932;-92
2023/10/14 08:07:24;;;;;;;;;;;;;;;19.03;54.69;101732.09;5035135;28;19936;-92
2023/10/14 08:09:55;;;;;;;;;;;;;;;19.09;54.65;101732.28;5043947;28;19998;-92
2023/10/14 08:12:25;;;;;;;;;;;;;;;19.05;54.67;101727.72;5020811;28;19956;-92
2023/10/14 08:15:02;;;;;;;;;;;;;;;18.94;55.06;101734.38;5036994;28;19928;-93
2023/10/14 08:17:31;;;;;;;;;;;;;;;19.01;54.66;101732.03;5056685;28;19917;-92
2023/10/14 08:19:59;;;;;;;;;;;;;;;19.05;54.77;101730.34;5021842;28;19920;-90
2023/10/14 08:22:45;;;;;;;;;;;;;;;19.05;54.77;101735.66;5036045;28;19959;-93
2023/10/14 08:25:18;;;;;;;;;;;;;;;18.95;54.87;101728.28;5019635;28;20024;-92
2023/10/14 08:28:09;;;;;;;;;;;;;;;18.92;55.03;101729.97;5019381;28;20594;-92
2023/10/14 08:30:50;;;;;;;;;;;;;;;18.96;55.58;101732.69;5037979;28;19917;-92
2023/10/14 08:33:24;;;;;;;;;;;;;;;19.03;55.09;101737.38;5011994;28;20354;-93
2023/10/14 08:35:52;;;;;;;;;;;;;;;19.01;55.08;101741.72;5022735;28;19924;-94
2023/10/14 08:38:50;;;;;;;;;;;;;;;18.99;55.03;101732.81;5040023;28;19928;-92
2023/10/14 08:41:18;;;;;;;;;;;;;;;19.02;54.94;101733.81;5038491;28;19944;-92
2023/10/14 08:44:08;;;;;;;;;;;;;;;18.99;55.04;101736.38;5021043;28;19917;-93
2023/10/14 08:46:35;;;;;;;;;;;;;;;19.00;54.97;101726.66;5037301;28;20011;-92
2023/10/14 08:49:03;;;;;;;;;;;;;;;19.09;54.75;101729.63;5011655;28;19929;-93
2023/10/14 08:54:31;;;;;;;;;;;;;;;19.15;54.87;101728.94;5035066;28;20367;-93
2023/10/14 08:56:57;;;;;;;;;;;;;;;19.12;55.10;101727.09;5009736;28;19953;-92
2023/10/14 08:59:34;;;;;;;;;;;;;;;19.06;55.07;101719.84;4998478;28;19913;-93
2023/10/14 09:02:01;;;;;;;;;;;;;;;19.07;55.29;101720.72;5008527;28;20461;-92
2023/10/14 09:04:40;;;;;;;;;;;;;;;19.07;55.54;101719.00;4997909;28;20402;-92
2023/10/14 09:07:14;;;;;;;;;;;;;;;19.17;55.20;101717.56;5022981;28;19928;-92
2023/10/14 09:09:40;;;;;;;;;;;;;;;19.10;55.59;101712.91;5000798;28;20417;-92
2023/10/14 09:12:19;;;;;;;;;;;;;;;19.02;55.70;101712.63;5009078;28;19960;-92
2023/10/14 09:15:20;;;;;;;;;;;;;;;19.11;55.20;101710.31;5000339;28;19921;-93
2023/10/14 09:17:47;;;;;;;;;;;;;;;19.03;55.94;101708.25;5014346;28;19920;-93
2023/10/14 09:20:35;;;;;;;;;;;;;;;18.97;55.91;101708.94;4988111;28;19920;-93
2023/10/14 09:23:20;;;;;;;;;;;;;;;18.96;56.01;101701.81;5024359;28;19921;-92
2023/10/14 09:25:46;;;;;;;;;;;;;;;19.01;56.92;101709.97;5019034;28;20417;-92
2023/10/14 09:28:12;;;;;;;;;;;;;;;19.01;56.61;101702.91;5034293;28;19921;-90
2023/10/14 09:30:55;;;;;;;;;;;;;;;18.99;56.50;101701.94;5028628;28;19921;-92
2023/10/14 09:33:22;;;;;;;;;;;;;;;18.97;56.70;101698.34;5005928;28;19917;-93
2023/10/14 09:38:54;;;;;;;;;;;;;;;18.92;57.16;101691.97;5028922;28;19987;-91
2023/10/14 09:41:25;;;;;;;;;;;;;;;18.89;56.82;101682.19;5017590;28;19921;-92
2023/10/14 09:44:24;;;;;;;;;;;;;;;18.96;56.68;101674.47;5014050;28;19921;-94
2023/10/14 09:46:58;;;;;;;;;;;;;;;18.96;57.16;101674.47;5013881;28;19922;-91
2023/10/14 09:49:24;;;;;;;;;;;;;;;18.90;57.43;101669.84;4995728;28;19943;-91
2023/10/14 09:52:04;;;;;;;;;;;;;;;18.98;57.11;101667.47;5013605;28;20342;-92
2023/10/14 09:55:04;;;;;;;;;;;;;;;18.93;57.03;101662.03;5029720;28;19923;-93
2023/10/14 09:57:41;;;;;;;;;;;;;;;18.90;57.17;101661.91;5011663;28;19960;-92
2023/10/14 10:00:07;;;;;;;;;;;;;;;18.94;57.21;101660.28;5007929;28;20424;-91
2023/10/14 10:02:39;;;;;;;;;;;;;;;18.96;57.27;101655.94;5021515;28;19913;-91
2023/10/14 10:05:39;;;;;;;;;;;;;;;18.94;57.08;101653.22;5038452;28;20394;-95
2023/10/14 10:11:29;;;;;;;;;;;;;;;18.96;57.42;101643.59;5031043;28;19917;-93
2023/10/14 10:14:02;;;;;;;;;;;;;;;18.90;57.70;101636.38;5018641;28;19968;-92
2023/10/14 10:16:39;;;;;;;;;;;;;;;18.98;57.92;101636.59;5035149;28;20016;-94
2023/10/14 10:19:05;;;;;;;;;;;;;;;18.97;58.41;101631.28;5010433;28;20503;-94
2023/10/14 10:21:32;;;;;;;;;;;;;;;18.98;58.15;101626.00;5025820;28;19928;-93
2023/10/14 10:24:01;;;;;;;;;;;;;;;19.00;58.57;101613.72;5019269;28;19917;-93
2023/10/14 10:26:45;;;;;;;;;;;;;;;18.92;58.94;101618.78;5003774;28;19983;-92
2023/10/14 10:29:23;;;;;;;;;;;;;;;18.89;59.12;101616.03;5042538;28;19917;-93
2023/10/14 10:32:07;;;;;;;;;;;;;;;18.87;59.21;101607.13;5037130;28;19992;-92
2023/10/14 10:34:34;;;;;;;;;;;;;;;18.90;60.00;101611.63;5029828;28;19917;-95
2023/10/14 10:37:03;;;;;;;;;;;;;;;19.06;59.31;101610.41;5035708;28;19933;-96
2023/10/14 10:39:30;;;;;;;;;;;;;;;19.06;59.73;101603.34;5045137;28;20251;-93
2023/10/14 10:41:56;;;;;;;;;;;;;;;18.99;60.72;101598.72;5031426;28;19913;-93
2023/10/14 10:44:24;;;;;;;;;;;;;;;19.03;61.11;101594.44;5037644;28;19976;-95
2023/10/14 10:46:57;;;;;;;;;;;;;;;18.99;61.65;101590.78;5047588;28;19995;-92
2023/10/14 10:49:45;;;;;;;;;;;;;;;18.99;61.32;101588.13;5049923;28;19921;-93
2023/10/14 10:52:14;;;;;;;;;;;;;;;19.00;61.97;101589.91;5048833;28;19963;-90
2023/10/14 10:54:42;;;;;;;;;;;;;;;19.04;61.47;101585.63;5047945;28;20007;-93
2023/10/14 10:57:07;;;;;;;;;;;;;;;19.06;61.04;101575.97;5031959;28;19912;-93
2023/10/14 10:59:50;;;;;;;;;;;;;;;19.05;62.15;101575.09;5031210;28;19972;-93
2023/10/14 11:02:18;;;;;;;;;;;;;;;19.02;62.24;101574.09;5046937;28;19913;-93
2023/10/14 11:04:45;;;;;;;;;;;;;;;19.03;61.86;101571.50;5041379;28;19913;-92
2023/10/14 11:07:12;;;;;;;;;;;;;;;18.99;61.25;101561.66;5024701;28;19921;-95
2023/10/14 11:09:39;;;;;;;;;;;;;;;19.03;61.66;101557.38;5043325;28;19912;-91
2023/10/14 11:12:05;;;;;;;;;;;;;;;19.18;60.92;101562.25;5040495;28;19912;-93
2023/10/14 11:14:37;;;;;;;;;;;;;;;19.14;61.27;101552.41;5041293;28;19925;-96
2023/10/14 11:17:10;;;;;;;;;;;;;;;19.13;60.94;101556.78;5044995;28;19953;-93
2023/10/14 11:19:36;;;;;;;;;;;;;;;19.22;60.44;101553.53;5036717;28;19902;-94
2023/10/14 11:22:25;;;;;;;;;;;;;;;19.21;60.46;101549.09;5046304;28;19956;-93
2023/10/14 11:24:58;;;;;;;;;;;;;;;19.17;60.77;101549.84;5058535;28;19916;-93
2023/10/14 11:27:30;;;;;;;;;;;;;;;19.27;60.14;101544.88;5037148;28;19917;-95
2023/10/14 11:29:57;;;;;;;;;;;;;;;19.42;59.48;101541.81;5035743;28;19913;-95
2023/10/14 11:32:47;;;;;;;;;;;;;;;19.41;59.79;101536.44;5022908;28;19999;-94
2023/10/14 11:35:39;;;;;;;;;;;;;;;19.30;59.79;101528.19;5040336;28;19917;-95
2023/10/14 11:38:31;;;;;;;;;;;;;;;19.42;59.87;101532.97;5033841;28;20375;-94
2023/10/14 11:41:04;;;;;;;;;;;;;;;19.36;60.46;101525.72;5049326;28;19959;-93
2023/10/14 11:43:34;;;;;;;;;;;;;;;19.25;61.16;101512.16;5014297;28;19917;-95
2023/10/14 11:46:02;;;;;;;;;;;;;;;19.26;60.24;101515.69;5062518;28;19928;-95
2023/10/14 11:48:29;;;;;;;;;;;;;;;19.31;60.76;101515.00;5034255;28;20306;-94
2023/10/14 11:50:58;;;;;;;;;;;;;;;19.31;60.07;101512.34;5010303;28;19924;-95
2023/10/14 11:53:27;;;;;;;;;;;;;;;19.37;60.74;101516.94;5017804;28;19917;-95
2023/10/14 11:55:53;;;;;;;;;;;;;;;19.40;60.67;101506.41;5000624;28;20442;-95
2023/10/14 11:58:23;;;;;;;;;;;;;;;19.36;60.79;101507.19;5014831;28;19914;-95
2023/10/14 12:00:50;;;;;;;;;;;;;;;19.39;60.52;101506.38;5004047;28;19918;-95
2023/10/14 12:03:28;;;;;;;;;;;;;;;19.46;60.39;101503.94;5003225;28;19913;-94
2023/10/14 12:06:04;;;;;;;;;;;;;;;19.45;59.87;101501.25;5005071;28;19936;-95
2023/10/14 12:08:51;;;;;;;;;;;;;;;19.49;59.75;101496.13;5032145;28;19918;-94
2023/10/14 12:11:42;;;;;;;;;;;;;;;19.52;60.01;101493.53;5010957;28;20461;-94
2023/10/14 12:14:14;;;;;;;;;;;;;;;19.55;59.39;101491.84;5003646;28;19917;-95
2023/10/14 12:16:42;;;;;;;;;;;;;;;19.58;59.43;101491.91;5020969;28;20378;-95
2023/10/14 12:19:12;;;;;;;;;;;;;;;19.58;59.42;101495.47;5003588;28;20012;-94
2023/10/14 12:21:48;;;;;;;;;;;;;;;19.61;59.37;101489.38;5002165;28;19913;-94
2023/10/14 12:24:16;;;;;;;;;;;;;;;19.59;59.05;101486.66;5006375;28;19921;-95
2023/10/14 12:27:13;;;;;;;;;;;;;;;19.65;59.09;101486.84;5002013;28;20429;-95
2023/10/14 12:29:50;;;;;;;;;;;;;;;19.68;59.09;101483.38;5014930;28;19918;-95
2023/10/14 12:32:25;;;;;;;;;;;;;;;19.67;58.71;101478.94;4997727;28;19920;-94
2023/10/14 12:34:52;;;;;;;;;;;;;;;19.69;59.18;101478.13;5015643;28;19924;-94
2023/10/14 12:37:24;;;;;;;;;;;;;;;19.71;58.70;101471.16;5010459;28;19921;-94
2023/10/14 12:40:11;;;;;;;;;;;;;;;19.74;58.70;101465.03;5019004;28;19921;-93
2023/10/14 12:42:54;;;;;;;;;;;;;;;19.75;59.46;101471.22;5015152;28;19925;-94
2023/10/14 12:45:34;;;;;;;;;;;;;;;19.77;59.11;101466.84;5003514;28;19946;-95
2023/10/14 12:48:09;;;;;;;;;;;;;;;19.69;60.04;101463.97;5027033;28;19925;-92
2023/10/14 12:50:40;;;;;;;;;;;;;;;19.75;59.85;101456.25;5038886;28;19917;-93
2023/10/14 12:53:10;;;;;;;;;;;;;;;19.82;59.32;101454.66;5029512;28;20386;-92
2023/10/14 12:55:53;;;;;;;;;;;;;;;19.87;58.59;101453.91;5039287;28;20370;-94
2023/10/14 12:58:20;;;;;;;;;;;;;;;19.86;58.81;101453.88;5038117;28;20409;-93
2023/10/14 13:00:47;;;;;;;;;;;;;;;19.76;59.90;101449.19;5061562;28;19917;-93
2023/10/14 13:03:13;;;;;;;;;;;;;;;19.82;59.45;101446.69;5026341;28;20374;-95
2023/10/14 13:05:38;;;;;;;;;;;;;;;19.81;59.92;101439.59;5035518;28;19920;-94
2023/10/14 13:08:07;;;;;;;;;;;;;;;19.80;60.43;101443.09;5026104;28;19960;-92
2023/10/14 13:10:38;;;;;;;;;;;;;;;19.80;60.55;101438.69;5045174;28;19913;-93
2023/10/14 13:16:19;;;;;;;;;;;;;;;19.77;60.12;101429.75;5057270;28;20001;-93
2023/10/14 13:18:53;;;;;;;;;;;;;;;19.80;60.82;101435.16;5028060;28;19913;-94
2023/10/14 13:21:21;;;;;;;;;;;;;;;19.73;61.59;101432.34;5036880;28;19913;-94
2023/10/14 13:24:05;;;;;;;;;;;;;;;19.67;61.76;101421.53;5028380;28;19913;-94
2023/10/14 13:26:35;;;;;;;;;;;;;;;19.63;61.87;101421.41;5055968;28;19921;-94
2023/10/14 13:29:14;;;;;;;;;;;;;;;19.64;62.02;101417.88;5023127;28;19952;-94
2023/10/14 13:32:05;;;;;;;;;;;;;;;19.63;61.95;101422.31;5038798;28;19948;-94
2023/10/14 13:34:32;;;;;;;;;;;;;;;19.66;62.25;101418.84;5054054;28;20298;-94
2023/10/14 13:36:59;;;;;;;;;;;;;;;19.62;62.03;101412.56;5067435;28;19913;-94
2023/10/14 13:39:34;;;;;;;;;;;;;;;19.60;62.41;101414.28;5045515;28;19925;-95
2023/10/14 13:42:00;;;;;;;;;;;;;;;19.60;62.01;101414.28;5034303;28;19924;-95
2023/10/14 13:44:26;;;;;;;;;;;;;;;19.53;62.40;101412.31;5036617;28;19932;-95
2023/10/14 13:46:51;;;;;;;;;;;;;;;19.57;62.22;101408.00;5036090;28;19925;-95
2023/10/14 13:49:23;;;;;;;;;;;;;;;19.55;62.53;101407.06;5022100;28;19932;-94
2023/10/14 13:51:58;;;;;;;;;;;;;;;19.51;62.52;101408.72;5023814;28;19917;-95
2023/10/14 13:54:24;;;;;;;;;;;;;;;19.51;62.55;101393.75;5018441;28;19917;-96